Time;durP1;ratioP1;P1;durP2;ratioP2;P2;SDS_P1;SDS_P2;PMS_P1;PMS_P2;Temp;Humidity;BMP_temperature;BMP_pressure;BME280_temperature;BME280_humidity;BME280_pressure;Samples;Min_cycle;Max_cycle;Signal;HPM_P1;HPM_P2
2023/01/23 00:01:43;;;;;;;;;;;;;;;8.91;100.00;100520.06;5267760;23;19933;-95
2023/01/23 00:10:14;;;;;;;;;;;;;;;8.74;100.00;100509.47;5005391;28;20412;-96
2023/01/23 00:23:48;;;;;;;;;;;;;;;8.92;100.00;100519.19;5062518;23;19909;-96
2023/01/23 00:26:48;;;;;;;;;;;;;;;8.96;100.00;100515.72;5008353;23;19921;-95
2023/01/23 00:29:20;;;;;;;;;;;;;;;9.02;100.00;100519.22;5115359;23;19934;-96
2023/01/23 00:55:22;;;;;;;;;;;;;;;9.00;100.00;100524.47;5541938;23;19929;-96
2023/01/23 01:00:39;;;;;;;;;;;;;;;8.98;100.00;100528.88;5022643;28;19968;-96
2023/01/23 01:03:07;;;;;;;;;;;;;;;8.97;100.00;100532.38;5020923;28;19914;-96
2023/01/23 01:08:21;;;;;;;;;;;;;;;9.21;100.00;100530.72;5068097;23;19938;-96
2023/01/23 01:10:53;;;;;;;;;;;;;;;9.26;100.00;100539.53;5021057;28;19943;-96
2023/01/23 01:13:32;;;;;;;;;;;;;;;9.08;100.00;100549.09;5018936;28;19990;-96
2023/01/23 01:16:00;;;;;;;;;;;;;;;8.95;100.00;100548.16;5020500;28;19943;-96
2023/01/23 01:18:43;;;;;;;;;;;;;;;9.05;100.00;100557.00;5197385;23;19944;-94
2023/01/23 01:21:11;;;;;;;;;;;;;;;8.97;100.00;100553.41;5121618;23;19926;-94
2023/01/23 01:23:37;;;;;;;;;;;;;;;8.95;100.00;100553.41;4993356;28;19930;-96
2023/01/23 01:26:08;;;;;;;;;;;;;;;8.92;100.00;100558.66;4996857;28;19921;-95
2023/01/23 01:28:38;;;;;;;;;;;;;;;8.87;100.00;100560.38;4991718;28;19980;-95
2023/01/23 01:31:08;;;;;;;;;;;;;;;8.92;100.00;100558.66;4991461;28;19976;-95
2023/01/23 01:33:38;;;;;;;;;;;;;;;9.01;100.00;100562.22;4987363;28;19918;-96
2023/01/23 01:36:11;;;;;;;;;;;;;;;9.11;100.00;100566.66;4995025;28;19925;-95
2023/01/23 01:38:48;;;;;;;;;;;;;;;8.90;100.00;100568.31;4993543;28;19918;-96
2023/01/23 01:41:14;;;;;;;;;;;;;;;8.92;100.00;100568.31;5004444;28;19930;-96
2023/01/23 01:43:45;;;;;;;;;;;;;;;8.99;100.00;100572.75;4988179;28;20021;-96
2023/01/23 01:46:44;;;;;;;;;;;;;;;8.90;100.00;100565.66;5016074;23;19941;-96
2023/01/23 01:49:14;;;;;;;;;;;;;;;8.93;100.00;100570.94;4979551;28;19930;-96
2023/01/23 01:51:49;;;;;;;;;;;;;;;8.94;100.00;100562.19;4970813;28;19929;-95
2023/01/23 01:54:46;;;;;;;;;;;;;;;9.01;100.00;100571.00;4984190;28;19918;-96
2023/01/23 01:57:36;;;;;;;;;;;;;;;9.00;100.00;100574.50;4981979;28;19918;-96
2023/01/23 02:00:27;;;;;;;;;;;;;;;8.88;100.00;100577.03;4988226;28;20012;-94
2023/01/23 02:03:24;;;;;;;;;;;;;;;8.90;100.00;100581.47;4994897;23;20012;-96
2023/01/23 02:06:16;;;;;;;;;;;;;;;9.06;100.00;100579.78;5025504;28;19965;-95
2023/01/23 02:09:04;;;;;;;;;;;;;;;9.00;100.00;100576.25;5024050;28;19925;-93
2023/01/23 02:11:31;;;;;;;;;;;;;;;9.02;100.00;100578.03;5002443;28;19922;-95
2023/01/23 02:13:56;;;;;;;;;;;;;;;8.98;100.00;100576.25;4984675;28;19933;-94
2023/01/23 02:24:25;;;;;;;;;;;;;;;8.87;100.00;100570.03;5133196;23;19910;-96
2023/01/23 02:26:53;;;;;;;;;;;;;;;8.92;100.00;100573.56;5029771;28;19933;-94
2023/01/23 02:35:25;;;;;;;;;;;;;;;9.17;100.00;100565.81;5273152;23;19961;-95
2023/01/23 02:38:05;;;;;;;;;;;;;;;9.05;100.00;100569.25;5028443;28;19925;-95
2023/01/23 02:40:35;;;;;;;;;;;;;;;9.04;100.00;100567.50;5027630;28;19977;-95
2023/01/23 02:43:22;;;;;;;;;;;;;;;8.94;100.00;100584.97;5026786;28;20012;-96
2023/01/23 02:45:50;;;;;;;;;;;;;;;8.93;100.00;100584.09;5061039;28;20020;-93
2023/01/23 02:48:50;;;;;;;;;;;;;;;8.99;100.00;100585.91;5025732;28;19921;-95
2023/01/23 02:51:43;;;;;;;;;;;;;;;8.91;100.00;100584.97;5009059;28;19993;-93
2023/01/23 02:54:09;;;;;;;;;;;;;;;8.95;100.00;100587.63;4977711;28;19926;-96
2023/01/23 02:56:34;;;;;;;;;;;;;;;8.99;100.00;100587.63;4986814;28;20013;-96
2023/01/23 03:01:56;;;;;;;;;;;;;;;8.94;100.00;100582.34;4994880;28;19928;-96
2023/01/23 03:04:24;;;;;;;;;;;;;;;8.95;100.00;100589.38;4980737;28;19922;-96
2023/01/23 03:06:49;;;;;;;;;;;;;;;9.05;100.00;100592.94;4982257;28;19946;-95
2023/01/23 03:09:17;;;;;;;;;;;;;;;9.08;100.00;100588.59;4999934;28;19922;-95
2023/01/23 03:12:09;;;;;;;;;;;;;;;9.05;100.00;100593.84;5290994;23;19921;-96
2023/01/23 03:14:55;;;;;;;;;;;;;;;9.06;100.00;100595.56;5249300;23;19948;-95
2023/01/23 03:17:39;;;;;;;;;;;;;;;9.10;100.00;100586.84;5289795;23;19934;-94
2023/01/23 03:20:17;;;;;;;;;;;;;;;9.31;100.00;100604.50;5636666;23;19949;-95
2023/01/23 03:23:21;;;;;;;;;;;;;;;9.11;100.00;100604.41;5026230;28;19972;-95
2023/01/23 03:32:53;;;;;;;;;;;;;;;8.80;100.00;100597.19;5042160;23;19953;-95
2023/01/23 03:46:47;;;;;;;;;;;;;;;8.80;100.00;100605.94;5419949;23;19936;-92
2023/01/23 03:49:15;;;;;;;;;;;;;;;8.89;100.00;100608.63;5043065;28;19983;-96
2023/01/23 03:51:42;;;;;;;;;;;;;;;8.89;100.00;100607.75;5029644;28;19925;-95
2023/01/23 03:54:10;;;;;;;;;;;;;;;8.83;100.00;100602.47;5024950;28;19926;-94
2023/01/23 03:56:42;;;;;;;;;;;;;;;8.65;100.00;100617.25;5022216;28;19921;-94
2023/01/23 03:59:08;;;;;;;;;;;;;;;8.64;100.00;100599.69;5010190;28;19922;-96
2023/01/23 04:01:53;;;;;;;;;;;;;;;8.53;100.00;100609.28;5023802;28;20418;-94
2023/01/23 04:04:18;;;;;;;;;;;;;;;8.47;100.00;100609.22;5014389;28;19922;-92
2023/01/23 04:06:45;;;;;;;;;;;;;;;8.41;100.00;100602.97;5013896;28;19922;-94
2023/01/23 04:09:12;;;;;;;;;;;;;;;8.44;100.00;100609.19;5014373;28;19925;-95
2023/01/23 04:11:37;;;;;;;;;;;;;;;8.40;100.00;100603.88;5020072;28;19953;-90
2023/01/23 04:14:03;;;;;;;;;;;;;;;8.44;100.00;100607.44;5026696;28;19924;-90
2023/01/23 04:16:28;;;;;;;;;;;;;;;8.49;100.00;100608.34;5045425;28;19925;-90
2023/01/23 04:18:53;;;;;;;;;;;;;;;8.55;100.00;100613.66;5049404;28;19917;-90
2023/01/23 04:21:20;;;;;;;;;;;;;;;8.58;100.00;100618.94;5047651;28;19921;-89
2023/01/23 04:23:46;;;;;;;;;;;;;;;8.68;100.00;100622.53;5048376;28;19936;-91
2023/01/23 04:26:12;;;;;;;;;;;;;;;8.45;100.00;100631.97;5039354;28;20051;-91
2023/01/23 04:28:37;;;;;;;;;;;;;;;8.44;100.00;100639.00;5027142;28;20012;-95
2023/01/23 04:31:03;;;;;;;;;;;;;;;8.36;100.00;100644.16;5025567;28;19956;-92
2023/01/23 04:33:28;;;;;;;;;;;;;;;8.38;100.00;100652.91;5026445;28;20334;-93
2023/01/23 04:35:57;;;;;;;;;;;;;;;8.44;100.00;100646.00;5025228;28;20383;-91
2023/01/23 04:38:23;;;;;;;;;;;;;;;8.34;100.00;100652.88;5023967;28;19929;-90
2023/01/23 04:40:49;;;;;;;;;;;;;;;8.26;100.00;100652.81;5027523;28;19921;-89
2023/01/23 04:43:14;;;;;;;;;;;;;;;8.21;100.00;100659.78;5024719;28;20302;-89
2023/01/23 04:45:39;;;;;;;;;;;;;;;8.18;100.00;100657.09;5023521;28;20410;-91
2023/01/23 04:48:05;;;;;;;;;;;;;;;8.25;100.00;100657.19;5026772;28;19932;-87
2023/01/23 04:50:31;;;;;;;;;;;;;;;8.10;100.00;100643.03;5026416;28;20303;-88
2023/01/23 04:52:57;;;;;;;;;;;;;;;8.07;100.00;100655.25;5017969;28;19925;-86
2023/01/23 04:55:22;;;;;;;;;;;;;;;8.15;100.00;100665.84;5011067;28;20028;-87
2023/01/23 04:57:49;;;;;;;;;;;;;;;8.13;100.00;100662.31;5008261;28;19929;-87
2023/01/23 05:00:15;;;;;;;;;;;;;;;8.10;100.00;100662.28;5007831;28;20020;-87
2023/01/23 05:02:40;;;;;;;;;;;;;;;8.14;100.00;100671.06;5007564;28;20690;-87
2023/01/23 05:05:06;;;;;;;;;;;;;;;8.13;100.00;100667.56;5014607;28;19917;-89
2023/01/23 05:07:35;;;;;;;;;;;;;;;8.07;100.00;100673.63;5012234;28;19921;-91
2023/01/23 05:10:00;;;;;;;;;;;;;;;8.02;100.00;100675.34;5013295;28;20013;-93
2023/01/23 05:12:27;;;;;;;;;;;;;;;7.99;100.00;100680.56;5013320;28;20020;-90
2023/01/23 05:14:52;;;;;;;;;;;;;;;7.95;100.00;100673.50;5012255;28;19926;-88
2023/01/23 05:17:17;;;;;;;;;;;;;;;7.83;100.00;100674.25;5014599;28;19925;-88
2023/01/23 05:19:43;;;;;;;;;;;;;;;7.85;100.00;100677.78;5015265;28;20458;-86
2023/01/23 05:22:08;;;;;;;;;;;;;;;7.92;100.00;100688.34;5031604;28;19932;-90
2023/01/23 05:24:33;;;;;;;;;;;;;;;7.91;100.00;100689.22;5029376;28;19921;-91
2023/01/23 05:27:04;;;;;;;;;;;;;;;7.77;100.00;100683.78;5019732;28;20309;-88
2023/01/23 05:29:30;;;;;;;;;;;;;;;7.76;100.00;100695.19;5025474;28;19925;-88
2023/01/23 05:31:55;;;;;;;;;;;;;;;7.83;100.00;100694.38;5011957;28;20393;-89
2023/01/23 05:34:21;;;;;;;;;;;;;;;7.77;100.00;100700.47;5011021;28;19922;-88
2023/01/23 05:36:46;;;;;;;;;;;;;;;7.85;100.00;100704.03;5011499;28;19921;-86
2023/01/23 05:39:13;;;;;;;;;;;;;;;7.74;100.00;100699.50;5009854;28;19929;-89
2023/01/23 05:41:38;;;;;;;;;;;;;;;7.81;100.00;100706.63;5007074;28;19921;-89
2023/01/23 05:44:03;;;;;;;;;;;;;;;7.81;100.00;100699.59;5026521;28;19936;-87
2023/01/23 05:46:29;;;;;;;;;;;;;;;7.70;100.00;100696.84;5025997;28;19932;-87
2023/01/23 05:48:54;;;;;;;;;;;;;;;7.72;100.00;100707.38;5015411;28;19925;-89
2023/01/23 05:51:20;;;;;;;;;;;;;;;7.80;100.00;100711.00;5016567;28;19922;-88
2023/01/23 05:53:45;;;;;;;;;;;;;;;7.85;100.00;100711.06;5007936;28;19988;-87
2023/01/23 05:56:10;;;;;;;;;;;;;;;7.89;100.00;100719.00;5006554;28;20474;-90
2023/01/23 05:58:35;;;;;;;;;;;;;;;7.80;100.00;100712.72;5009614;28;19927;-88
2023/01/23 06:01:02;;;;;;;;;;;;;;;7.83;100.00;100710.13;5028113;28;19931;-87
2023/01/23 06:03:27;;;;;;;;;;;;;;;7.82;100.00;100735.53;5019543;28;19948;-87
2023/01/23 06:05:53;;;;;;;;;;;;;;;7.79;100.00;100726.75;5026391;28;19929;-87
2023/01/23 06:08:18;;;;;;;;;;;;;;;7.73;100.00;100731.91;5030412;28;19921;-89
2023/01/23 06:10:43;;;;;;;;;;;;;;;7.80;100.00;100732.00;5025450;28;19964;-87
2023/01/23 06:13:09;;;;;;;;;;;;;;;7.82;100.00;100746.03;5009844;28;19927;-85
2023/01/23 06:15:34;;;;;;;;;;;;;;;7.78;100.00;100749.47;5009518;28;19922;-88
2023/01/23 06:17:59;;;;;;;;;;;;;;;7.75;100.00;100745.94;5010053;28;19961;-89
2023/01/23 06:20:24;;;;;;;;;;;;;;;7.73;100.00;100752.94;5010052;28;19917;-88
2023/01/23 06:22:51;;;;;;;;;;;;;;;7.80;100.00;100750.41;5009958;28;20430;-88
2023/01/23 06:25:19;;;;;;;;;;;;;;;7.76;100.00;100750.34;5026207;28;20353;-87
2023/01/23 06:27:44;;;;;;;;;;;;;;;7.77;100.00;100753.00;5024075;28;20318;-88
2023/01/23 06:30:10;;;;;;;;;;;;;;;7.77;100.00;100752.09;5010109;28;19928;-88
2023/01/23 06:32:35;;;;;;;;;;;;;;;7.68;100.00;100758.13;5010666;28;19951;-88
2023/01/23 06:35:01;;;;;;;;;;;;;;;7.77;100.00;100766.13;5014358;28;20740;-88
2023/01/23 06:37:26;;;;;;;;;;;;;;;7.74;100.00;100776.59;5029763;28;19979;-87
2023/01/23 06:39:51;;;;;;;;;;;;;;;7.66;100.00;100779.09;5012989;28;19980;-87
2023/01/23 06:42:17;;;;;;;;;;;;;;;7.73;100.00;100773.94;5019573;28;19925;-87
2023/01/23 06:44:43;;;;;;;;;;;;;;;7.82;100.00;100780.19;5021304;28;19917;-87
2023/01/23 06:47:09;;;;;;;;;;;;;;;7.75;100.00;100777.47;5022429;28;20016;-87
2023/01/23 06:49:34;;;;;;;;;;;;;;;7.80;100.00;100786.28;5016809;28;20471;-88
2023/01/23 06:51:59;;;;;;;;;;;;;;;7.81;100.00;100783.66;5029216;28;20375;-88
2023/01/23 06:54:24;;;;;;;;;;;;;;;7.85;100.00;100789.88;5015635;28;19944;-88
2023/01/23 06:56:50;;;;;;;;;;;;;;;7.86;100.00;100786.34;5014000;28;20023;-89
2023/01/23 06:59:15;;;;;;;;;;;;;;;7.83;100.00;100789.84;5015703;28;19932;-88
2023/01/23 07:01:41;;;;;;;;;;;;;;;7.82;100.00;100800.34;5018286;28;20724;-87
2023/01/23 07:04:10;;;;;;;;;;;;;;;7.87;100.00;100802.13;5011269;28;20546;-87
2023/01/23 07:06:35;;;;;;;;;;;;;;;7.81;100.00;100807.31;5010117;28;19930;-86
2023/01/23 07:09:00;;;;;;;;;;;;;;;7.84;100.00;100804.72;5018914;28;20008;-86
2023/01/23 07:11:26;;;;;;;;;;;;;;;7.91;100.00;100804.81;5015719;28;20020;-87
2023/01/23 07:13:51;;;;;;;;;;;;;;;7.91;100.00;100797.84;5028721;28;19943;-88
2023/01/23 07:16:16;;;;;;;;;;;;;;;7.93;100.00;100805.72;5028814;28;19971;-87
2023/01/23 07:18:42;;;;;;;;;;;;;;;7.85;100.00;100793.38;5029103;28;19928;-86
2023/01/23 07:21:07;;;;;;;;;;;;;;;7.77;100.00;100795.00;5028195;28;20390;-87
2023/01/23 07:23:33;;;;;;;;;;;;;;;7.85;100.00;100809.13;5028237;28;20475;-87
2023/01/23 07:25:59;;;;;;;;;;;;;;;7.87;100.00;100804.75;5017297;28;19936;-89
2023/01/23 07:28:24;;;;;;;;;;;;;;;7.85;100.00;100811.75;5009639;28;19930;-88
2023/01/23 07:30:49;;;;;;;;;;;;;;;7.92;100.00;100806.59;5009590;28;19922;-89
2023/01/23 07:33:15;;;;;;;;;;;;;;;7.90;100.00;100814.44;5008649;28;19922;-89
2023/01/23 07:35:41;;;;;;;;;;;;;;;7.97;100.00;100802.25;5009403;28;19930;-89
2023/01/23 07:38:06;;;;;;;;;;;;;;;7.82;100.00;100801.22;5007706;28;19925;-87
2023/01/23 07:40:31;;;;;;;;;;;;;;;7.94;100.00;100796.97;5008918;28;20410;-89
2023/01/23 07:42:57;;;;;;;;;;;;;;;7.84;100.00;100796.84;5008515;28;20383;-88
2023/01/23 07:45:22;;;;;;;;;;;;;;;7.83;100.00;100802.97;5008607;28;19921;-89
2023/01/23 07:47:47;;;;;;;;;;;;;;;7.90;100.00;100806.56;5008881;28;19925;-88
2023/01/23 07:50:13;;;;;;;;;;;;;;;7.98;100.00;100812.78;5007114;28;19929;-88
2023/01/23 07:52:38;;;;;;;;;;;;;;;7.97;100.00;100804.88;5007344;28;19929;-88
2023/01/23 07:55:04;;;;;;;;;;;;;;;7.94;100.00;100813.63;5008579;28;20007;-87
2023/01/23 07:57:30;;;;;;;;;;;;;;;7.96;100.00;100814.53;5008290;28;19939;-86
2023/01/23 07:59:55;;;;;;;;;;;;;;;7.93;100.00;100811.00;5008443;28;19928;-87
2023/01/23 08:02:20;;;;;;;;;;;;;;;7.93;100.00;100811.00;5008596;28;19967;-87
2023/01/23 08:04:46;;;;;;;;;;;;;;;7.97;100.00;100803.16;5008276;28;19972;-88
2023/01/23 08:07:12;;;;;;;;;;;;;;;8.07;100.00;100804.16;5007244;28;19929;-91
2023/01/23 08:09:38;;;;;;;;;;;;;;;8.04;100.00;100805.00;5008688;28;20346;-87
2023/01/23 08:12:04;;;;;;;;;;;;;;;7.98;100.00;100811.91;5007554;28;19918;-88
2023/01/23 08:14:29;;;;;;;;;;;;;;;7.99;100.00;100806.69;5008601;28;19980;-88
2023/01/23 08:16:55;;;;;;;;;;;;;;;8.09;100.00;100807.69;5006505;28;19971;-86
2023/01/23 08:19:20;;;;;;;;;;;;;;;8.13;100.00;100813.88;5007087;28;20605;-86
2023/01/23 08:21:46;;;;;;;;;;;;;;;8.15;100.00;100817.41;5008058;28;19925;-87
2023/01/23 08:24:11;;;;;;;;;;;;;;;8.10;100.00;100817.34;5008108;28;19926;-88
2023/01/23 08:26:37;;;;;;;;;;;;;;;8.18;100.00;100817.44;5008252;28;19918;-88
2023/01/23 08:29:03;;;;;;;;;;;;;;;8.07;100.00;100836.56;5008066;28;19956;-88
2023/01/23 08:31:29;;;;;;;;;;;;;;;8.13;100.00;100833.16;4990498;28;19922;-87
2023/01/23 08:33:54;;;;;;;;;;;;;;;8.21;100.00;100830.63;5007421;28;19928;-87
2023/01/23 08:36:19;;;;;;;;;;;;;;;8.32;100.00;100838.66;5008544;28;19921;-88
2023/01/23 08:38:45;;;;;;;;;;;;;;;8.35;100.00;100836.94;5008248;28;19922;-87
2023/01/23 08:41:10;;;;;;;;;;;;;;;8.18;100.00;100834.09;5007765;28;19928;-87
2023/01/23 08:43:36;;;;;;;;;;;;;;;8.22;100.00;100838.53;5007612;28;20714;-87
2023/01/23 08:46:02;;;;;;;;;;;;;;;8.19;100.00;100841.13;5007694;28;19929;-87
2023/01/23 08:48:27;;;;;;;;;;;;;;;8.22;100.00;100849.03;5007476;28;19987;-87
2023/01/23 08:50:58;;;;;;;;;;;;;;;8.23;100.00;100849.91;5008514;28;19918;-87
2023/01/23 08:53:23;;;;;;;;;;;;;;;8.40;100.00;100850.13;5006748;28;20373;-87
2023/01/23 08:55:48;;;;;;;;;;;;;;;8.27;100.00;100851.72;5008416;28;19979;-90
2023/01/23 08:58:14;;;;;;;;;;;;;;;8.28;100.00;100845.63;5009414;28;19933;-90
2023/01/23 09:00:39;;;;;;;;;;;;;;;8.31;100.00;100850.00;5017955;28;19909;-92
2023/01/23 09:03:05;;;;;;;;;;;;;;;8.33;100.00;100838.66;5035462;28;19929;-92
2023/01/23 09:05:31;;;;;;;;;;;;;;;8.17;100.00;100844.56;5033258;28;19932;-88
2023/01/23 09:07:57;;;;;;;;;;;;;;;8.23;100.00;100845.56;5032196;28;19928;-90
2023/01/23 09:10:23;;;;;;;;;;;;;;;8.26;100.00;100852.59;5033730;28;19925;-87
2023/01/23 09:12:52;;;;;;;;;;;;;;;8.42;100.00;100851.94;5034134;28;19949;-89
2023/01/23 09:15:18;;;;;;;;;;;;;;;8.31;100.00;100845.66;5015205;28;20064;-89
2023/01/23 09:17:43;;;;;;;;;;;;;;;8.31;100.00;100839.50;5007286;28;20015;-95
2023/01/23 09:20:09;;;;;;;;;;;;;;;8.42;100.00;100844.03;5007517;28;19917;-89
2023/01/23 09:22:34;;;;;;;;;;;;;;;8.41;100.00;100844.03;5007325;28;19922;-89
2023/01/23 09:25:00;;;;;;;;;;;;;;;8.36;100.00;100838.69;5007415;28;20735;-88
2023/01/23 09:27:25;;;;;;;;;;;;;;;8.37;100.00;100836.94;5006867;28;20538;-89
2023/01/23 09:29:50;;;;;;;;;;;;;;;8.46;100.00;100844.09;5007119;28;20399;-90
2023/01/23 09:32:16;;;;;;;;;;;;;;;8.65;100.00;100840.84;5007443;28;19972;-88
2023/01/23 09:34:43;;;;;;;;;;;;;;;8.54;100.00;100837.19;5006183;28;19922;-89
2023/01/23 09:37:08;;;;;;;;;;;;;;;8.54;100.00;100840.72;5010747;28;19921;-93
2023/01/23 09:39:33;;;;;;;;;;;;;;;8.53;100.00;100841.56;5010960;28;20460;-91
2023/01/23 09:42:06;;;;;;;;;;;;;;;8.51;100.00;100837.16;5009755;28;19918;-91
2023/01/23 09:44:32;;;;;;;;;;;;;;;8.57;100.00;100832.84;5009849;28;19994;-91
2023/01/23 09:47:03;;;;;;;;;;;;;;;8.57;100.00;100831.94;5010826;28;19925;-91
2023/01/23 09:49:41;;;;;;;;;;;;;;;8.62;100.00;100834.63;5010815;28;20015;-91
2023/01/23 09:52:29;;;;;;;;;;;;;;;8.71;100.00;100834.75;5011374;28;19917;-90
2023/01/23 09:54:55;;;;;;;;;;;;;;;8.61;100.00;100823.25;5008407;28;20008;-91
2023/01/23 09:57:23;;;;;;;;;;;;;;;8.52;100.00;100831.91;5009177;28;20336;-91
2023/01/23 09:59:50;;;;;;;;;;;;;;;8.55;100.00;100828.44;5009758;28;20422;-92
2023/01/23 10:02:18;;;;;;;;;;;;;;;8.54;100.00;100830.19;5010740;28;19964;-91
2023/01/23 10:04:45;;;;;;;;;;;;;;;8.64;100.00;100827.66;5014153;28;19921;-92
2023/01/23 10:07:23;;;;;;;;;;;;;;;8.63;100.00;100829.38;5022050;28;19929;-90
2023/01/23 10:10:07;;;;;;;;;;;;;;;8.62;100.00;100834.63;5017530;28;20024;-91
2023/01/23 10:12:56;;;;;;;;;;;;;;;8.62;100.00;100816.22;5029359;28;19921;-90
2023/01/23 10:15:30;;;;;;;;;;;;;;;8.71;100.00;100814.59;5024393;28;19929;-92
2023/01/23 10:18:19;;;;;;;;;;;;;;;8.69;100.00;100815.44;5028308;28;20456;-93
2023/01/23 10:20:50;;;;;;;;;;;;;;;8.53;100.00;100804.75;4991823;28;20004;-91
2023/01/23 10:23:29;;;;;;;;;;;;;;;8.57;100.00;100816.16;4991051;28;19937;-92
2023/01/23 10:25:56;;;;;;;;;;;;;;;8.51;100.00;100800.31;4985326;28;19921;-94
2023/01/23 10:28:31;;;;;;;;;;;;;;;8.66;100.00;100805.75;5007744;28;19917;-93
2023/01/23 10:30:59;;;;;;;;;;;;;;;8.54;100.00;100803.00;5007958;28;19944;-90
2023/01/23 10:33:51;;;;;;;;;;;;;;;8.56;100.00;100811.81;4980966;28;19922;-93
2023/01/23 10:36:23;;;;;;;;;;;;;;;8.48;100.00;100803.81;4986430;28;20040;-90
2023/01/23 10:38:57;;;;;;;;;;;;;;;8.41;100.00;100805.44;4987915;28;19918;-88
2023/01/23 10:41:23;;;;;;;;;;;;;;;8.65;100.00;100803.09;5001523;28;19976;-89
2023/01/23 10:43:50;;;;;;;;;;;;;;;8.48;100.00;100792.41;5007906;28;19922;-93
2023/01/23 10:46:41;;;;;;;;;;;;;;;8.48;100.00;100788.03;5006871;28;19960;-90
2023/01/23 10:49:06;;;;;;;;;;;;;;;8.39;100.00;100785.28;4971590;28;20520;-92
2023/01/23 10:51:34;;;;;;;;;;;;;;;8.42;100.00;100798.47;4955660;28;19925;-90
2023/01/23 10:54:18;;;;;;;;;;;;;;;8.43;100.00;100797.56;4971694;28;22039;-90
2023/01/23 10:56:49;;;;;;;;;;;;;;;8.51;100.00;100795.97;4989587;28;20020;-92
2023/01/23 10:59:20;;;;;;;;;;;;;;;8.42;100.00;100794.06;5008659;28;19913;-92
2023/01/23 11:01:53;;;;;;;;;;;;;;;8.33;100.00;100780.81;4989194;28;19921;-93
2023/01/23 11:04:20;;;;;;;;;;;;;;;8.19;100.00;100787.69;4975895;28;19932;-94
2023/01/23 11:07:07;;;;;;;;;;;;;;;8.15;100.00;100770.09;4991707;28;20372;-93
2023/01/23 11:09:43;;;;;;;;;;;;;;;8.20;100.00;100777.19;5006994;28;20000;-88
2023/01/23 11:12:13;;;;;;;;;;;;;;;8.10;100.00;100772.66;4990347;28;19921;-90
2023/01/23 11:14:39;;;;;;;;;;;;;;;8.18;100.00;100778.00;4990396;28;20004;-90
2023/01/23 11:17:19;;;;;;;;;;;;;;;8.25;100.00;100783.38;5007033;28;19926;-89
2023/01/23 11:19:45;;;;;;;;;;;;;;;8.27;100.00;100779.88;5006712;28;19928;-90
2023/01/23 11:22:26;;;;;;;;;;;;;;;8.24;99.84;100785.97;5007648;28;20574;-92
2023/01/23 11:24:52;;;;;;;;;;;;;;;8.13;99.61;100779.72;5008805;28;20511;-85
2023/01/23 11:27:19;;;;;;;;;;;;;;;8.11;99.06;100784.06;5029003;28;20003;-88
2023/01/23 11:29:47;;;;;;;;;;;;;;;8.01;99.42;100786.56;5029135;28;20338;-90
2023/01/23 11:32:12;;;;;;;;;;;;;;;8.09;100.00;100784.03;5029654;28;19925;-91
2023/01/23 11:34:56;;;;;;;;;;;;;;;8.15;99.91;100775.34;5027478;28;19921;-87
2023/01/23 11:37:30;;;;;;;;;;;;;;;8.14;98.88;100766.59;5028296;28;19924;-92
2023/01/23 11:40:01;;;;;;;;;;;;;;;7.99;99.61;100780.41;5030307;28;19921;-89
2023/01/23 11:42:28;;;;;;;;;;;;;;;8.06;100.00;100770.84;5028383;28;19921;-89
2023/01/23 11:44:55;;;;;;;;;;;;;;;8.11;99.43;100781.41;5029676;28;19948;-87
2023/01/23 11:47:21;;;;;;;;;;;;;;;8.26;100.00;100768.47;5026978;28;19937;-93
2023/01/23 11:49:59;;;;;;;;;;;;;;;8.25;99.27;100778.09;5027470;28;19921;-89
2023/01/23 11:52:24;;;;;;;;;;;;;;;8.59;100.00;100781.16;5028315;28;20008;-91
2023/01/23 11:55:08;;;;;;;;;;;;;;;8.54;97.59;100779.31;5028625;28;20729;-90
2023/01/23 11:57:36;;;;;;;;;;;;;;;8.37;97.45;100782.63;5028307;28;19990;-90
2023/01/23 12:00:11;;;;;;;;;;;;;;;8.38;98.21;100792.25;5028364;28;19967;-94
2023/01/23 12:03:01;;;;;;;;;;;;;;;8.43;98.21;100792.31;5027960;28;19921;-89
2023/01/23 12:05:45;;;;;;;;;;;;;;;8.25;98.01;100787.75;5027926;28;20414;-91
2023/01/23 12:08:14;;;;;;;;;;;;;;;8.45;97.64;100795.00;5027034;28;19913;-89
2023/01/23 12:10:41;;;;;;;;;;;;;;;8.46;97.68;100800.28;5026693;28;20391;-89
2023/01/23 12:13:23;;;;;;;;;;;;;;;8.41;97.87;100800.19;5025962;28;20016;-91
2023/01/23 12:16:00;;;;;;;;;;;;;;;8.47;98.21;100801.19;5027631;28;19921;-88
2023/01/23 12:18:26;;;;;;;;;;;;;;;8.31;97.09;100800.06;5027909;28;20012;-88
2023/01/23 12:21:01;;;;;;;;;;;;;;;8.25;97.56;100798.25;5027620;28;20017;-88
2023/01/23 12:23:35;;;;;;;;;;;;;;;8.23;98.02;100797.34;5028209;28;19917;-90
2023/01/23 12:26:10;;;;;;;;;;;;;;;8.06;98.10;100799.75;5027816;28;19928;-90
2023/01/23 12:28:39;;;;;;;;;;;;;;;7.95;99.36;100791.72;5028798;28;20012;-90
2023/01/23 12:31:41;;;;;;;;;;;;;;;7.88;100.00;100797.78;5028392;28;19979;-92
2023/01/23 12:34:06;;;;;;;;;;;;;;;7.94;100.00;100803.13;4989940;28;20296;-89
2023/01/23 12:37:01;;;;;;;;;;;;;;;7.89;99.82;100812.66;5006329;28;19929;-88
2023/01/23 12:39:44;;;;;;;;;;;;;;;7.91;99.89;100817.94;4947277;29;20392;-94
2023/01/23 12:42:17;;;;;;;;;;;;;;;7.95;100.00;100817.13;4947245;29;19969;-91
2023/01/23 12:44:57;;;;;;;;;;;;;;;7.87;100.00;100827.53;4947406;29;19918;-91
2023/01/23 12:47:26;;;;;;;;;;;;;;;7.96;100.00;100832.91;4946761;29;19930;-88
2023/01/23 12:50:01;;;;;;;;;;;;;;;7.66;100.00;100821.13;4947762;29;19930;-90
2023/01/23 12:52:26;;;;;;;;;;;;;;;7.47;100.00;100819.06;4948137;29;19928;-89
2023/01/23 12:55:10;;;;;;;;;;;;;;;7.48;100.00;100824.34;4948602;29;19922;-89
2023/01/23 12:57:50;;;;;;;;;;;;;;;7.45;100.00;100832.16;4949300;29;19925;-90
2023/01/23 13:00:21;;;;;;;;;;;;;;;7.56;100.00;100828.84;4947540;29;19918;-90
2023/01/23 13:02:49;;;;;;;;;;;;;;;7.35;100.00;100825.91;4946966;29;20479;-92
2023/01/23 13:05:38;;;;;;;;;;;;;;;7.30;100.00;100817.03;4947481;28;20485;-91
2023/01/23 13:08:42;;;;;;;;;;;;;;;7.35;100.00;100823.28;4964764;28;20350;-90
2023/01/23 13:11:39;;;;;;;;;;;;;;;7.55;100.00;100827.06;4946202;29;19937;-88
2023/01/23 13:14:40;;;;;;;;;;;;;;;7.39;100.00;100818.06;4947047;29;19922;-90
2023/01/23 13:17:24;;;;;;;;;;;;;;;7.37;100.00;100825.03;4972555;28;19928;-92
2023/01/23 13:22:37;;;;;;;;;;;;;;;7.43;100.00;100827.75;4985766;28;19928;-86
2023/01/23 13:25:12;;;;;;;;;;;;;;;7.45;100.00;100834.78;4984971;28;20432;-87
2023/01/23 13:27:45;;;;;;;;;;;;;;;7.47;100.00;100826.94;4985512;28;20008;-90
2023/01/23 13:30:30;;;;;;;;;;;;;;;7.37;100.00;100820.69;4986217;28;19918;-90
2023/01/23 13:32:59;;;;;;;;;;;;;;;7.33;100.00;100827.59;4985773;28;20016;-87
2023/01/23 13:35:43;;;;;;;;;;;;;;;7.39;100.00;100828.56;4986584;28;20015;-91
2023/01/23 13:38:21;;;;;;;;;;;;;;;7.31;100.00;100842.44;4989990;28;19929;-89
2023/01/23 13:41:10;;;;;;;;;;;;;;;7.29;100.00;100838.94;5013216;28;19907;-89
2023/01/23 13:43:52;;;;;;;;;;;;;;;7.31;100.00;100837.19;5055298;28;19936;-87
2023/01/23 13:46:25;;;;;;;;;;;;;;;7.32;100.00;100838.97;5052579;28;19996;-86
2023/01/23 13:51:40;;;;;;;;;;;;;;;7.52;100.00;100830.50;5052557;28;19940;-90
2023/01/23 13:56:58;;;;;;;;;;;;;;;7.52;100.00;100864.66;5025833;28;21897;-89
2023/01/23 13:59:24;;;;;;;;;;;;;;;7.40;100.00;100862.72;5028455;28;19936;-96
2023/01/23 14:07:42;;;;;;;;;;;;;;;7.49;98.82;100878.63;5027876;28;19924;-91
2023/01/23 14:10:28;;;;;;;;;;;;;;;7.48;98.93;100876.84;5026209;28;20012;-91
2023/01/23 14:13:01;;;;;;;;;;;;;;;7.41;98.73;100872.34;5026078;28;20393;-94
2023/01/23 14:18:22;;;;;;;;;;;;;;;7.58;99.27;100877.88;5025374;28;19941;-91
2023/01/23 14:20:50;;;;;;;;;;;;;;;7.61;98.38;100872.69;5027000;28;19921;-90
2023/01/23 14:23:35;;;;;;;;;;;;;;;7.55;99.13;100877.81;5029024;28;19921;-91
2023/01/23 14:26:02;;;;;;;;;;;;;;;7.38;99.70;100876.69;5028556;28;19927;-92
2023/01/23 14:28:28;;;;;;;;;;;;;;;7.28;99.41;100878.28;5029630;28;20399;-90
2023/01/23 14:31:03;;;;;;;;;;;;;;;7.21;100.00;100885.13;5030129;28;19927;-90
2023/01/23 14:33:41;;;;;;;;;;;;;;;7.23;100.00;100882.53;5028501;28;20268;-90
2023/01/23 14:36:11;;;;;;;;;;;;;;;7.26;100.00;100883.50;5029908;28;19921;-90